sensor_id;sensor_type;location;lat;lon;timestamp;temperature;humidity
318;DHT22;146;53.448;10.228;2023-05-23T00:02:10;17.50;3.90
318;DHT22;146;53.448;10.228;2023-05-23T00:04:40;17.40;3.60
318;DHT22;146;53.448;10.228;2023-05-23T00:07:13;17.30;3.50
318;DHT22;146;53.448;10.228;2023-05-23T00:09:40;17.20;4.00
318;DHT22;146;53.448;10.228;2023-05-23T00:12:10;17.20;4.40
318;DHT22;146;53.448;10.228;2023-05-23T00:14:43;17.20;4.60
318;DHT22;146;53.448;10.228;2023-05-23T00:17:10;17.30;4.90
318;DHT22;146;53.448;10.228;2023-05-23T00:19:39;17.20;4.40
318;DHT22;146;53.448;10.228;2023-05-23T00:22:10;17.10;4.50
318;DHT22;146;53.448;10.228;2023-05-23T00:24:43;17.20;4.80
318;DHT22;146;53.448;10.228;2023-05-23T00:27:09;17.10;4.50
318;DHT22;146;53.448;10.228;2023-05-23T00:29:41;17.10;4.50
318;DHT22;146;53.448;10.228;2023-05-23T00:32:11;17.00;4.80
318;DHT22;146;53.448;10.228;2023-05-23T00:34:41;17.00;5.20
318;DHT22;146;53.448;10.228;2023-05-23T00:37:08;17.10;5.50
318;DHT22;146;53.448;10.228;2023-05-23T00:39:36;17.10;5.40
318;DHT22;146;53.448;10.228;2023-05-23T00:42:05;17.10;5.20
318;DHT22;146;53.448;10.228;2023-05-23T00:44:38;17.10;5.30
318;DHT22;146;53.448;10.228;2023-05-23T00:47:06;17.10;5.20
318;DHT22;146;53.448;10.228;2023-05-23T00:49:33;17.00;5.00
318;DHT22;146;53.448;10.228;2023-05-23T00:52:03;17.00;5.10
318;DHT22;146;53.448;10.228;2023-05-23T00:54:33;17.00;5.20
318;DHT22;146;53.448;10.228;2023-05-23T00:57:04;17.00;5.30
318;DHT22;146;53.448;10.228;2023-05-23T00:59:32;17.00;5.10
318;DHT22;146;53.448;10.228;2023-05-23T01:02:04;17.00;5.00
318;DHT22;146;53.448;10.228;2023-05-23T01:04:31;17.00;4.90
318;DHT22;146;53.448;10.228;2023-05-23T01:06:59;17.00;4.80
318;DHT22;146;53.448;10.228;2023-05-23T01:09:27;17.00;4.70
318;DHT22;146;53.448;10.228;2023-05-23T01:12:02;17.00;4.50
318;DHT22;146;53.448;10.228;2023-05-23T01:14:41;17.00;4.40
318;DHT22;146;53.448;10.228;2023-05-23T01:17:25;17.00;4.40
318;DHT22;146;53.448;10.228;2023-05-23T01:19:59;17.00;4.50
318;DHT22;146;53.448;10.228;2023-05-23T01:22:57;17.00;4.50
318;DHT22;146;53.448;10.228;2023-05-23T01:25:46;17.10;4.60
318;DHT22;146;53.448;10.228;2023-05-23T01:28:17;17.10;4.60
318;DHT22;146;53.448;10.228;2023-05-23T01:30:45;17.20;4.50
318;DHT22;146;53.448;10.228;2023-05-23T01:33:17;17.20;4.50
318;DHT22;146;53.448;10.228;2023-05-23T01:35:49;17.20;4.40
318;DHT22;146;53.448;10.228;2023-05-23T01:38:16;17.20;4.40
318;DHT22;146;53.448;10.228;2023-05-23T01:40:50;17.30;4.40
318;DHT22;146;53.448;10.228;2023-05-23T01:43:18;17.30;4.30
318;DHT22;146;53.448;10.228;2023-05-23T01:45:45;17.40;4.10
318;DHT22;146;53.448;10.228;2023-05-23T01:48:17;17.40;4.00
318;DHT22;146;53.448;10.228;2023-05-23T01:50:44;17.40;4.00
318;DHT22;146;53.448;10.228;2023-05-23T01:53:12;17.40;4.20
318;DHT22;146;53.448;10.228;2023-05-23T01:55:40;17.30;4.20
318;DHT22;146;53.448;10.228;2023-05-23T01:58:07;17.40;4.30
318;DHT22;146;53.448;10.228;2023-05-23T02:00:35;17.30;4.30
318;DHT22;146;53.448;10.228;2023-05-23T02:03:09;17.40;4.50
318;DHT22;146;53.448;10.228;2023-05-23T02:05:36;17.50;4.20
318;DHT22;146;53.448;10.228;2023-05-23T02:08:08;17.60;4.00
318;DHT22;146;53.448;10.228;2023-05-23T02:10:35;17.60;3.80
318;DHT22;146;53.448;10.228;2023-05-23T02:13:12;17.60;3.60
318;DHT22;146;53.448;10.228;2023-05-23T02:15:43;17.70;3.70
318;DHT22;146;53.448;10.228;2023-05-23T02:18:13;17.60;3.50
318;DHT22;146;53.448;10.228;2023-05-23T02:20:40;17.60;3.30
318;DHT22;146;53.448;10.228;2023-05-23T02:23:07;17.60;3.30
318;DHT22;146;53.448;10.228;2023-05-23T02:25:37;17.60;3.40
318;DHT22;146;53.448;10.228;2023-05-23T02:28:03;17.60;3.20
318;DHT22;146;53.448;10.228;2023-05-23T02:30:33;17.50;2.80
318;DHT22;146;53.448;10.228;2023-05-23T02:33:26;17.40;2.40
318;DHT22;146;53.448;10.228;2023-05-23T02:35:56;17.20;2.60
318;DHT22;146;53.448;10.228;2023-05-23T02:38:23;17.10;2.90
318;DHT22;146;53.448;10.228;2023-05-23T02:40:51;17.10;2.90
318;DHT22;146;53.448;10.228;2023-05-23T02:43:18;17.10;3.10
318;DHT22;146;53.448;10.228;2023-05-23T02:45:46;17.00;2.90
318;DHT22;146;53.448;10.228;2023-05-23T02:48:12;16.90;2.90
318;DHT22;146;53.448;10.228;2023-05-23T02:50:51;16.70;2.60
318;DHT22;146;53.448;10.228;2023-05-23T02:53:21;16.60;3.10
318;DHT22;146;53.448;10.228;2023-05-23T02:55:51;16.50;3.20
318;DHT22;146;53.448;10.228;2023-05-23T02:58:26;16.40;3.00
318;DHT22;146;53.448;10.228;2023-05-23T03:00:52;16.40;3.40
318;DHT22;146;53.448;10.228;2023-05-23T03:03:22;16.30;3.40
318;DHT22;146;53.448;10.228;2023-05-23T03:05:50;16.20;3.80
318;DHT22;146;53.448;10.228;2023-05-23T03:08:18;16.20;4.20
318;DHT22;146;53.448;10.228;2023-05-23T03:10:48;16.10;3.90
318;DHT22;146;53.448;10.228;2023-05-23T03:13:14;16.00;3.70
318;DHT22;146;53.448;10.228;2023-05-23T03:15:41;15.90;4.10
318;DHT22;146;53.448;10.228;2023-05-23T03:18:14;15.90;4.60
318;DHT22;146;53.448;10.228;2023-05-23T03:20:41;15.90;4.70
318;DHT22;146;53.448;10.228;2023-05-23T03:23:09;15.80;4.60
318;DHT22;146;53.448;10.228;2023-05-23T03:25:43;15.80;4.70
318;DHT22;146;53.448;10.228;2023-05-23T03:28:10;15.90;5.00
318;DHT22;146;53.448;10.228;2023-05-23T03:30:40;15.90;4.90
318;DHT22;146;53.448;10.228;2023-05-23T03:33:07;15.80;4.70
318;DHT22;146;53.448;10.228;2023-05-23T03:35:34;15.80;4.90
318;DHT22;146;53.448;10.228;2023-05-23T03:38:01;15.80;4.90
318;DHT22;146;53.448;10.228;2023-05-23T03:40:29;15.80;5.10
318;DHT22;146;53.448;10.228;2023-05-23T03:43:02;15.80;5.00
318;DHT22;146;53.448;10.228;2023-05-23T03:45:29;15.80;5.10
318;DHT22;146;53.448;10.228;2023-05-23T03:47:56;15.90;5.00
318;DHT22;146;53.448;10.228;2023-05-23T03:50:26;15.80;4.70
318;DHT22;146;53.448;10.228;2023-05-23T03:52:53;15.80;4.60
318;DHT22;146;53.448;10.228;2023-05-23T03:55:20;15.80;4.50
318;DHT22;146;53.448;10.228;2023-05-23T03:57:50;15.80;4.80
318;DHT22;146;53.448;10.228;2023-05-23T04:00:17;15.80;4.60
318;DHT22;146;53.448;10.228;2023-05-23T04:02:47;15.80;4.40
318;DHT22;146;53.448;10.228;2023-05-23T04:05:17;15.80;4.40
318;DHT22;146;53.448;10.228;2023-05-23T04:07:44;15.80;4.40
318;DHT22;146;53.448;10.228;2023-05-23T04:10:17;15.70;3.80
318;DHT22;146;53.448;10.228;2023-05-23T04:12:43;15.70;3.80
318;DHT22;146;53.448;10.228;2023-05-23T04:15:13;15.70;3.60
318;DHT22;146;53.448;10.228;2023-05-23T04:17:43;15.60;3.40
318;DHT22;146;53.448;10.228;2023-05-23T04:20:10;15.60;3.40
318;DHT22;146;53.448;10.228;2023-05-23T04:22:40;15.60;3.50
318;DHT22;146;53.448;10.228;2023-05-23T04:25:07;15.60;3.50
318;DHT22;146;53.448;10.228;2023-05-23T04:27:37;15.60;3.20
318;DHT22;146;53.448;10.228;2023-05-23T04:30:15;15.50;3.30
318;DHT22;146;53.448;10.228;2023-05-23T04:32:45;15.50;3.50
318;DHT22;146;53.448;10.228;2023-05-23T04:35:15;15.50;3.70
318;DHT22;146;53.448;10.228;2023-05-23T04:37:42;15.50;3.80
318;DHT22;146;53.448;10.228;2023-05-23T04:40:10;15.50;3.60
318;DHT22;146;53.448;10.228;2023-05-23T04:42:42;15.50;3.50
318;DHT22;146;53.448;10.228;2023-05-23T04:45:12;15.50;3.50
318;DHT22;146;53.448;10.228;2023-05-23T04:47:43;15.50;3.60
318;DHT22;146;53.448;10.228;2023-05-23T04:50:10;15.50;3.40
318;DHT22;146;53.448;10.228;2023-05-23T04:52:37;15.40;3.20
318;DHT22;146;53.448;10.228;2023-05-23T04:55:07;15.40;3.40
318;DHT22;146;53.448;10.228;2023-05-23T04:57:34;15.40;3.50
318;DHT22;146;53.448;10.228;2023-05-23T05:00:05;15.40;3.70
318;DHT22;146;53.448;10.228;2023-05-23T05:02:35;15.30;3.40
318;DHT22;146;53.448;10.228;2023-05-23T05:05:16;15.20;3.30
318;DHT22;146;53.448;10.228;2023-05-23T05:07:51;15.20;3.20
318;DHT22;146;53.448;10.228;2023-05-23T05:10:19;15.30;3.20
318;DHT22;146;53.448;10.228;2023-05-23T05:12:46;15.10;2.50
318;DHT22;146;53.448;10.228;2023-05-23T05:15:14;15.10;2.60
318;DHT22;146;53.448;10.228;2023-05-23T05:17:44;15.10;2.90
318;DHT22;146;53.448;10.228;2023-05-23T05:20:12;15.10;3.00
318;DHT22;146;53.448;10.228;2023-05-23T05:22:39;15.00;3.20
318;DHT22;146;53.448;10.228;2023-05-23T05:25:09;15.10;3.50
318;DHT22;146;53.448;10.228;2023-05-23T05:27:39;15.00;3.40
318;DHT22;146;53.448;10.228;2023-05-23T05:30:15;15.00;3.30
318;DHT22;146;53.448;10.228;2023-05-23T05:32:41;15.10;3.50
318;DHT22;146;53.448;10.228;2023-05-23T05:35:10;15.00;3.50
318;DHT22;146;53.448;10.228;2023-05-23T05:37:40;15.10;3.80
318;DHT22;146;53.448;10.228;2023-05-23T05:40:10;15.20;3.70
318;DHT22;146;53.448;10.228;2023-05-23T05:42:43;15.20;3.40
318;DHT22;146;53.448;10.228;2023-05-23T05:45:10;15.10;3.10
318;DHT22;146;53.448;10.228;2023-05-23T05:47:43;15.10;3.30
318;DHT22;146;53.448;10.228;2023-05-23T05:50:12;15.10;3.70
318;DHT22;146;53.448;10.228;2023-05-23T05:52:47;15.10;3.80
318;DHT22;146;53.448;10.228;2023-05-23T05:55:14;15.20;3.60
318;DHT22;146;53.448;10.228;2023-05-23T05:57:43;15.10;3.60
318;DHT22;146;53.448;10.228;2023-05-23T06:00:11;15.20;3.80
318;DHT22;146;53.448;10.228;2023-05-23T06:02:40;15.10;3.90
318;DHT22;146;53.448;10.228;2023-05-23T06:05:13;15.10;4.00
318;DHT22;146;53.448;10.228;2023-05-23T06:07:46;15.10;4.30
318;DHT22;146;53.448;10.228;2023-05-23T06:10:17;15.10;4.60
318;DHT22;146;53.448;10.228;2023-05-23T06:12:44;15.20;4.90
318;DHT22;146;53.448;10.228;2023-05-23T06:15:14;15.10;4.90
318;DHT22;146;53.448;10.228;2023-05-23T06:17:41;15.10;4.90
318;DHT22;146;53.448;10.228;2023-05-23T06:20:10;15.00;5.20
318;DHT22;146;53.448;10.228;2023-05-23T06:22:37;15.10;5.70
318;DHT22;146;53.448;10.228;2023-05-23T06:25:13;15.10;5.90
318;DHT22;146;53.448;10.228;2023-05-23T06:27:44;15.10;5.90
318;DHT22;146;53.448;10.228;2023-05-23T06:30:14;15.10;6.00
318;DHT22;146;53.448;10.228;2023-05-23T06:32:41;15.20;6.10
318;DHT22;146;53.448;10.228;2023-05-23T06:35:14;15.20;6.10
318;DHT22;146;53.448;10.228;2023-05-23T06:37:42;15.10;6.10
318;DHT22;146;53.448;10.228;2023-05-23T06:40:12;15.20;6.30
318;DHT22;146;53.448;10.228;2023-05-23T06:42:46;15.20;5.90
318;DHT22;146;53.448;10.228;2023-05-23T06:45:17;15.30;5.90
318;DHT22;146;53.448;10.228;2023-05-23T06:47:43;15.30;6.20
318;DHT22;146;53.448;10.228;2023-05-23T06:50:12;15.30;6.30
318;DHT22;146;53.448;10.228;2023-05-23T06:52:39;15.30;6.40
318;DHT22;146;53.448;10.228;2023-05-23T06:55:08;15.40;6.40
318;DHT22;146;53.448;10.228;2023-05-23T06:57:41;15.50;6.70
318;DHT22;146;53.448;10.228;2023-05-23T07:00:13;15.50;6.70
318;DHT22;146;53.448;10.228;2023-05-23T07:02:40;15.50;6.50
318;DHT22;146;53.448;10.228;2023-05-23T07:05:13;15.50;6.20
318;DHT22;146;53.448;10.228;2023-05-23T07:07:40;15.50;5.70
318;DHT22;146;53.448;10.228;2023-05-23T07:10:15;15.40;5.50
318;DHT22;146;53.448;10.228;2023-05-23T07:12:42;15.50;5.70
318;DHT22;146;53.448;10.228;2023-05-23T07:15:11;15.50;5.80
318;DHT22;146;53.448;10.228;2023-05-23T07:17:41;15.50;5.80
318;DHT22;146;53.448;10.228;2023-05-23T07:20:08;15.50;5.90
318;DHT22;146;53.448;10.228;2023-05-23T07:22:35;15.50;6.00
318;DHT22;146;53.448;10.228;2023-05-23T07:25:07;15.60;5.90
318;DHT22;146;53.448;10.228;2023-05-23T07:27:40;15.50;5.90
318;DHT22;146;53.448;10.228;2023-05-23T07:30:14;15.60;6.00
318;DHT22;146;53.448;10.228;2023-05-23T07:32:41;15.50;6.00
318;DHT22;146;53.448;10.228;2023-05-23T07:35:11;15.60;6.00
318;DHT22;146;53.448;10.228;2023-05-23T07:37:38;15.60;6.10
318;DHT22;146;53.448;10.228;2023-05-23T07:40:06;15.70;6.10
318;DHT22;146;53.448;10.228;2023-05-23T07:42:42;15.60;5.70
318;DHT22;146;53.448;10.228;2023-05-23T07:45:12;15.50;5.20
318;DHT22;146;53.448;10.228;2023-05-23T07:48:00;15.30;5.10
318;DHT22;146;53.448;10.228;2023-05-23T07:50:27;15.20;5.00
318;DHT22;146;53.448;10.228;2023-05-23T07:52:54;15.10;5.10
318;DHT22;146;53.448;10.228;2023-05-23T07:55:24;15.00;5.30
318;DHT22;146;53.448;10.228;2023-05-23T07:57:51;15.00;5.40
318;DHT22;146;53.448;10.228;2023-05-23T08:00:22;14.90;4.90
318;DHT22;146;53.448;10.228;2023-05-23T08:02:49;14.70;4.40
318;DHT22;146;53.448;10.228;2023-05-23T08:05:17;14.70;4.20
318;DHT22;146;53.448;10.228;2023-05-23T08:07:46;14.60;4.60
318;DHT22;146;53.448;10.228;2023-05-23T08:10:15;14.60;4.80
318;DHT22;146;53.448;10.228;2023-05-23T08:12:45;14.60;5.40
318;DHT22;146;53.448;10.228;2023-05-23T08:15:15;14.70;5.50
318;DHT22;146;53.448;10.228;2023-05-23T08:17:42;14.70;5.40
318;DHT22;146;53.448;10.228;2023-05-23T08:20:10;14.70;5.30
318;DHT22;146;53.448;10.228;2023-05-23T08:22:38;14.60;4.70
318;DHT22;146;53.448;10.228;2023-05-23T08:25:05;14.70;4.70
318;DHT22;146;53.448;10.228;2023-05-23T08:27:32;14.70;4.90
318;DHT22;146;53.448;10.228;2023-05-23T08:30:00;14.80;4.80
318;DHT22;146;53.448;10.228;2023-05-23T08:32:37;14.80;4.50
318;DHT22;146;53.448;10.228;2023-05-23T08:35:04;14.90;4.00
318;DHT22;146;53.448;10.228;2023-05-23T08:37:31;15.00;2.80
318;DHT22;146;53.448;10.228;2023-05-23T08:39:59;15.00;1.90
318;DHT22;146;53.448;10.228;2023-05-23T08:42:29;15.10;1.00
318;DHT22;146;53.448;10.228;2023-05-23T08:44:56;15.30;1.00
318;DHT22;146;53.448;10.228;2023-05-23T08:47:23;15.30;1.00
318;DHT22;146;53.448;10.228;2023-05-23T08:49:50;15.30;1.00
318;DHT22;146;53.448;10.228;2023-05-23T08:52:20;15.30;1.00
318;DHT22;146;53.448;10.228;2023-05-23T08:54:51;15.20;1.00
318;DHT22;146;53.448;10.228;2023-05-23T08:57:20;15.20;1.00
318;DHT22;146;53.448;10.228;2023-05-23T08:59:47;15.30;1.00
318;DHT22;146;53.448;10.228;2023-05-23T09:02:15;15.30;1.00
318;DHT22;146;53.448;10.228;2023-05-23T09:04:42;15.30;1.00
318;DHT22;146;53.448;10.228;2023-05-23T09:07:18;15.30;1.00
318;DHT22;146;53.448;10.228;2023-05-23T09:09:47;15.40;1.00
318;DHT22;146;53.448;10.228;2023-05-23T09:12:14;15.40;1.00
318;DHT22;146;53.448;10.228;2023-05-23T09:14:52;15.50;1.00
318;DHT22;146;53.448;10.228;2023-05-23T09:17:20;15.60;1.00
318;DHT22;146;53.448;10.228;2023-05-23T09:19:47;15.60;1.00
318;DHT22;146;53.448;10.228;2023-05-23T09:22:15;15.70;1.00
318;DHT22;146;53.448;10.228;2023-05-23T09:24:42;15.60;1.00
318;DHT22;146;53.448;10.228;2023-05-23T09:27:15;15.50;1.00
318;DHT22;146;53.448;10.228;2023-05-23T09:29:43;15.30;1.00
318;DHT22;146;53.448;10.228;2023-05-23T09:32:21;15.40;1.00
318;DHT22;146;53.448;10.228;2023-05-23T09:35:04;15.20;1.00
318;DHT22;146;53.448;10.228;2023-05-23T09:37:42;15.20;1.00
318;DHT22;146;53.448;10.228;2023-05-23T09:40:11;15.10;1.00
318;DHT22;146;53.448;10.228;2023-05-23T09:42:43;15.00;1.00
318;DHT22;146;53.448;10.228;2023-05-23T09:45:11;15.00;1.00
318;DHT22;146;53.448;10.228;2023-05-23T09:47:48;15.00;1.00
318;DHT22;146;53.448;10.228;2023-05-23T09:50:15;14.90;1.00
318;DHT22;146;53.448;10.228;2023-05-23T09:52:45;14.70;1.00
318;DHT22;146;53.448;10.228;2023-05-23T09:55:12;14.60;1.00
318;DHT22;146;53.448;10.228;2023-05-23T09:57:43;14.50;1.00
318;DHT22;146;53.448;10.228;2023-05-23T10:00:11;14.30;1.20
318;DHT22;146;53.448;10.228;2023-05-23T10:02:54;14.20;2.00
318;DHT22;146;53.448;10.228;2023-05-23T10:05:31;14.00;2.60
318;DHT22;146;53.448;10.228;2023-05-23T10:08:00;14.00;3.30
318;DHT22;146;53.448;10.228;2023-05-23T10:10:30;13.90;3.90
318;DHT22;146;53.448;10.228;2023-05-23T10:13:01;13.80;4.50
318;DHT22;146;53.448;10.228;2023-05-23T10:15:32;13.80;4.50
318;DHT22;146;53.448;10.228;2023-05-23T10:18:14;13.70;4.00
318;DHT22;146;53.448;10.228;2023-05-23T10:20:47;13.70;4.10
318;DHT22;146;53.448;10.228;2023-05-23T10:23:15;13.70;4.10
318;DHT22;146;53.448;10.228;2023-05-23T10:25:43;13.70;3.70
318;DHT22;146;53.448;10.228;2023-05-23T10:28:11;13.60;2.80
318;DHT22;146;53.448;10.228;2023-05-23T10:30:42;13.50;2.50
318;DHT22;146;53.448;10.228;2023-05-23T10:33:13;13.50;2.80
318;DHT22;146;53.448;10.228;2023-05-23T10:35:47;13.50;3.00
318;DHT22;146;53.448;10.228;2023-05-23T10:38:31;13.60;3.00
318;DHT22;146;53.448;10.228;2023-05-23T10:41:06;13.50;2.50
318;DHT22;146;53.448;10.228;2023-05-23T10:43:41;13.50;2.30
318;DHT22;146;53.448;10.228;2023-05-23T10:46:18;13.50;2.50
318;DHT22;146;53.448;10.228;2023-05-23T10:48:46;13.40;2.10
318;DHT22;146;53.448;10.228;2023-05-23T10:51:14;13.40;2.30
318;DHT22;146;53.448;10.228;2023-05-23T10:53:44;13.40;2.30
318;DHT22;146;53.448;10.228;2023-05-23T10:56:19;13.40;2.40
318;DHT22;146;53.448;10.228;2023-05-23T10:58:54;13.30;1.20
318;DHT22;146;53.448;10.228;2023-05-23T11:01:23;13.30;1.00
318;DHT22;146;53.448;10.228;2023-05-23T11:03:52;13.30;1.00
318;DHT22;146;53.448;10.228;2023-05-23T11:06:30;13.40;1.00
318;DHT22;146;53.448;10.228;2023-05-23T11:09:02;13.50;1.00
318;DHT22;146;53.448;10.228;2023-05-23T11:11:58;13.50;1.00
318;DHT22;146;53.448;10.228;2023-05-23T11:14:52;13.50;1.00
318;DHT22;146;53.448;10.228;2023-05-23T11:17:38;13.50;1.00
318;DHT22;146;53.448;10.228;2023-05-23T11:20:17;13.40;1.00
318;DHT22;146;53.448;10.228;2023-05-23T11:22:53;13.50;1.00
318;DHT22;146;53.448;10.228;2023-05-23T11:25:20;13.50;1.00
318;DHT22;146;53.448;10.228;2023-05-23T11:27:48;13.60;1.00
318;DHT22;146;53.448;10.228;2023-05-23T11:30:16;13.70;1.00
318;DHT22;146;53.448;10.228;2023-05-23T11:32:49;13.70;1.00
318;DHT22;146;53.448;10.228;2023-05-23T11:35:18;13.70;1.00
318;DHT22;146;53.448;10.228;2023-05-23T11:37:46;13.70;1.00
318;DHT22;146;53.448;10.228;2023-05-23T11:40:32;13.80;1.00
318;DHT22;146;53.448;10.228;2023-05-23T11:43:06;13.70;1.00
318;DHT22;146;53.448;10.228;2023-05-23T11:45:39;13.80;1.00
318;DHT22;146;53.448;10.228;2023-05-23T11:48:08;14.00;1.00
318;DHT22;146;53.448;10.228;2023-05-23T11:50:44;14.10;1.00
318;DHT22;146;53.448;10.228;2023-05-23T11:53:12;14.40;1.00
318;DHT22;146;53.448;10.228;2023-05-23T11:55:48;14.50;1.00
318;DHT22;146;53.448;10.228;2023-05-23T11:58:20;14.50;1.00
318;DHT22;146;53.448;10.228;2023-05-23T12:00:48;14.60;1.00
318;DHT22;146;53.448;10.228;2023-05-23T12:03:18;14.60;1.00
318;DHT22;146;53.448;10.228;2023-05-23T12:05:46;14.50;1.00
318;DHT22;146;53.448;10.228;2023-05-23T12:08:19;14.60;1.00
318;DHT22;146;53.448;10.228;2023-05-23T12:10:51;14.60;1.00
318;DHT22;146;53.448;10.228;2023-05-23T12:13:19;14.50;1.00
318;DHT22;146;53.448;10.228;2023-05-23T12:15:49;14.50;1.00
318;DHT22;146;53.448;10.228;2023-05-23T12:18:18;14.60;1.00
318;DHT22;146;53.448;10.228;2023-05-23T12:20:47;14.50;1.00
318;DHT22;146;53.448;10.228;2023-05-23T12:23:17;14.50;1.00
318;DHT22;146;53.448;10.228;2023-05-23T12:25:51;14.70;1.00
318;DHT22;146;53.448;10.228;2023-05-23T12:28:20;14.90;1.00
318;DHT22;146;53.448;10.228;2023-05-23T12:30:50;15.00;1.00
318;DHT22;146;53.448;10.228;2023-05-23T12:33:18;15.30;1.00
318;DHT22;146;53.448;10.228;2023-05-23T12:35:47;15.40;1.00
318;DHT22;146;53.448;10.228;2023-05-23T12:38:16;15.50;1.00
318;DHT22;146;53.448;10.228;2023-05-23T12:40:43;15.50;1.00
318;DHT22;146;53.448;10.228;2023-05-23T12:43:14;15.40;1.00
318;DHT22;146;53.448;10.228;2023-05-23T12:45:40;15.40;1.00
318;DHT22;146;53.448;10.228;2023-05-23T12:48:16;15.50;1.00
318;DHT22;146;53.448;10.228;2023-05-23T12:50:50;15.50;1.00
318;DHT22;146;53.448;10.228;2023-05-23T12:53:19;15.60;1.00
318;DHT22;146;53.448;10.228;2023-05-23T12:55:46;15.60;1.00
318;DHT22;146;53.448;10.228;2023-05-23T12:58:16;15.50;1.00
318;DHT22;146;53.448;10.228;2023-05-23T13:00:43;15.60;1.00
318;DHT22;146;53.448;10.228;2023-05-23T13:03:10;15.90;1.00
318;DHT22;146;53.448;10.228;2023-05-23T13:05:39;15.90;1.00
318;DHT22;146;53.448;10.228;2023-05-23T13:08:16;16.00;1.00
318;DHT22;146;53.448;10.228;2023-05-23T13:10:44;16.00;1.00
318;DHT22;146;53.448;10.228;2023-05-23T13:13:13;16.00;1.00
318;DHT22;146;53.448;10.228;2023-05-23T13:15:40;16.00;1.00
318;DHT22;146;53.448;10.228;2023-05-23T13:18:10;16.00;1.00
318;DHT22;146;53.448;10.228;2023-05-23T13:20:37;15.90;1.00
318;DHT22;146;53.448;10.228;2023-05-23T13:23:09;15.80;1.00
318;DHT22;146;53.448;10.228;2023-05-23T13:25:38;15.80;1.00
318;DHT22;146;53.448;10.228;2023-05-23T13:28:07;15.70;1.00
318;DHT22;146;53.448;10.228;2023-05-23T13:30:34;15.80;1.00
318;DHT22;146;53.448;10.228;2023-05-23T13:33:01;15.90;1.00
318;DHT22;146;53.448;10.228;2023-05-23T13:35:28;16.00;1.00
318;DHT22;146;53.448;10.228;2023-05-23T13:37:55;16.10;1.00
318;DHT22;146;53.448;10.228;2023-05-23T13:40:22;16.30;1.00
318;DHT22;146;53.448;10.228;2023-05-23T13:42:50;16.20;1.00
318;DHT22;146;53.448;10.228;2023-05-23T13:45:20;16.20;1.00
318;DHT22;146;53.448;10.228;2023-05-23T13:47:56;16.30;1.00
318;DHT22;146;53.448;10.228;2023-05-23T13:50:26;16.40;1.00
318;DHT22;146;53.448;10.228;2023-05-23T13:52:53;16.30;1.00
318;DHT22;146;53.448;10.228;2023-05-23T13:55:23;16.30;1.00
318;DHT22;146;53.448;10.228;2023-05-23T13:57:52;16.40;1.00
318;DHT22;146;53.448;10.228;2023-05-23T14:00:19;16.40;1.00
318;DHT22;146;53.448;10.228;2023-05-23T14:02:45;16.40;1.00
318;DHT22;146;53.448;10.228;2023-05-23T14:05:18;16.30;1.00
318;DHT22;146;53.448;10.228;2023-05-23T14:07:45;16.20;1.00
318;DHT22;146;53.448;10.228;2023-05-23T14:10:15;16.00;1.00
318;DHT22;146;53.448;10.228;2023-05-23T14:12:45;15.90;1.00
318;DHT22;146;53.448;10.228;2023-05-23T14:15:14;15.80;1.00
318;DHT22;146;53.448;10.228;2023-05-23T14:17:44;15.80;1.00
318;DHT22;146;53.448;10.228;2023-05-23T14:20:11;15.80;1.00
318;DHT22;146;53.448;10.228;2023-05-23T14:22:41;15.90;1.00
318;DHT22;146;53.448;10.228;2023-05-23T14:25:08;15.70;1.00
318;DHT22;146;53.448;10.228;2023-05-23T14:27:35;15.60;1.00
318;DHT22;146;53.448;10.228;2023-05-23T14:30:03;15.60;1.00
318;DHT22;146;53.448;10.228;2023-05-23T14:32:31;15.50;1.00
318;DHT22;146;53.448;10.228;2023-05-23T14:35:03;15.60;1.00
318;DHT22;146;53.448;10.228;2023-05-23T14:37:36;15.80;1.00
318;DHT22;146;53.448;10.228;2023-05-23T14:40:03;15.80;1.00
318;DHT22;146;53.448;10.228;2023-05-23T14:42:31;15.80;1.00
318;DHT22;146;53.448;10.228;2023-05-23T14:44:58;15.80;1.00
318;DHT22;146;53.448;10.228;2023-05-23T14:47:25;15.80;1.00
318;DHT22;146;53.448;10.228;2023-05-23T14:49:53;15.70;1.00
318;DHT22;146;53.448;10.228;2023-05-23T14:52:20;15.60;1.00
318;DHT22;146;53.448;10.228;2023-05-23T14:54:46;15.60;1.00
318;DHT22;146;53.448;10.228;2023-05-23T14:57:16;15.40;1.00
318;DHT22;146;53.448;10.228;2023-05-23T14:59:43;15.30;1.00
318;DHT22;146;53.448;10.228;2023-05-23T15:02:11;15.30;1.00
318;DHT22;146;53.448;10.228;2023-05-23T15:04:38;15.30;1.00
318;DHT22;146;53.448;10.228;2023-05-23T15:07:08;15.30;1.00
318;DHT22;146;53.448;10.228;2023-05-23T15:09:35;15.30;1.00
318;DHT22;146;53.448;10.228;2023-05-23T15:12:02;15.30;1.00
318;DHT22;146;53.448;10.228;2023-05-23T15:14:32;15.30;1.00
318;DHT22;146;53.448;10.228;2023-05-23T15:17:01;15.20;1.00
318;DHT22;146;53.448;10.228;2023-05-23T15:19:38;15.10;1.00
318;DHT22;146;53.448;10.228;2023-05-23T15:22:11;15.00;1.00
318;DHT22;146;53.448;10.228;2023-05-23T15:24:41;14.90;1.00
318;DHT22;146;53.448;10.228;2023-05-23T15:27:11;14.90;1.00
318;DHT22;146;53.448;10.228;2023-05-23T15:29:43;14.80;1.00
318;DHT22;146;53.448;10.228;2023-05-23T15:32:15;14.80;1.00
318;DHT22;146;53.448;10.228;2023-05-23T15:34:45;14.90;1.00
318;DHT22;146;53.448;10.228;2023-05-23T15:37:22;15.00;1.00
318;DHT22;146;53.448;10.228;2023-05-23T15:39:55;15.20;1.00
318;DHT22;146;53.448;10.228;2023-05-23T15:42:22;15.20;1.00
318;DHT22;146;53.448;10.228;2023-05-23T15:44:48;15.20;1.00
318;DHT22;146;53.448;10.228;2023-05-23T15:47:15;15.10;1.00
318;DHT22;146;53.448;10.228;2023-05-23T15:49:43;15.10;1.00
318;DHT22;146;53.448;10.228;2023-05-23T15:52:16;15.00;1.00
318;DHT22;146;53.448;10.228;2023-05-23T15:54:44;15.00;1.00
318;DHT22;146;53.448;10.228;2023-05-23T15:57:16;14.90;1.00
318;DHT22;146;53.448;10.228;2023-05-23T15:59:46;14.90;1.00
318;DHT22;146;53.448;10.228;2023-05-23T16:02:16;14.80;1.00
318;DHT22;146;53.448;10.228;2023-05-23T16:04:43;14.60;1.00
318;DHT22;146;53.448;10.228;2023-05-23T16:07:10;14.60;1.00
318;DHT22;146;53.448;10.228;2023-05-23T16:09:37;14.50;1.00
318;DHT22;146;53.448;10.228;2023-05-23T16:12:06;14.50;1.00
318;DHT22;146;53.448;10.228;2023-05-23T16:14:33;14.50;1.00
318;DHT22;146;53.448;10.228;2023-05-23T16:17:00;14.50;1.00
318;DHT22;146;53.448;10.228;2023-05-23T16:19:29;14.50;1.00
318;DHT22;146;53.448;10.228;2023-05-23T16:21:59;14.40;1.00
318;DHT22;146;53.448;10.228;2023-05-23T16:24:28;14.30;1.00
318;DHT22;146;53.448;10.228;2023-05-23T16:29:50;14.30;1.00
318;DHT22;146;53.448;10.228;2023-05-23T16:32:19;14.30;1.00
318;DHT22;146;53.448;10.228;2023-05-23T16:34:48;14.20;1.00
318;DHT22;146;53.448;10.228;2023-05-23T16:37:15;14.00;1.00
318;DHT22;146;53.448;10.228;2023-05-23T16:39:48;14.00;1.00
318;DHT22;146;53.448;10.228;2023-05-23T16:42:14;13.90;1.00
318;DHT22;146;53.448;10.228;2023-05-23T16:44:42;13.90;1.00
318;DHT22;146;53.448;10.228;2023-05-23T16:47:19;13.90;1.00
318;DHT22;146;53.448;10.228;2023-05-23T16:49:49;13.80;1.00
318;DHT22;146;53.448;10.228;2023-05-23T16:52:18;13.80;1.00
318;DHT22;146;53.448;10.228;2023-05-23T16:54:51;13.70;1.00
318;DHT22;146;53.448;10.228;2023-05-23T16:57:20;13.60;1.00